Flight Track Log - Related Links

Times and Time Zones

All times are in EDT time to prevent confusion due to time zone crossing. See the VH-ZPO flight status page for this flight to view local times or setup timezone preferences in your user account.

Time Position Orientation Groundspeed Altitude Reporting Facility
EDT Latitude Longitude Course Direction KTS MPH feet Rate Location/Type
Sun 06:57:19 PM -27.3985 153.1218 209° Southwest 133 153 700  Level Aus ATC (RADAR)
Sun 06:57:49 PM -27.4169 153.1105 209° Southwest 145 167 1,800 1,527 Climbing Aus ATC (RADAR)
Sun 06:58:14 PM -27.4356 153.1002 206° Southwest 172 198 2,100 1,700 Climbing Aus ATC (RADAR)
Sun 06:58:49 PM -27.4648 153.0831 207° Southwest 199 229 3,500 2,625 Climbing Aus ATC (RADAR)
Sun 06:59:34 PM -27.4915 153.0426 233° Southwest 222 255 5,600 3,039 Climbing Aus ATC (RADAR)
Sun 07:00:06 PM -27.4708 153.0120 307° West 240 276 7,400 3,300 Climbing Aus ATC (RADAR)
Sun 07:00:54 PM -27.4139 152.9998 349° North 242 278 10,000 2,548 Climbing Aus ATC (RADAR)
Sun 07:01:19 PM -27.3871 153.0206 35° Northeast 264 304 10,500 2,133 Climbing Aus ATC (RADAR)
Sun 07:02:24 PM -27.3101 153.0818 35° Northeast 317 365 13,200 2,463 Climbing Aus ATC (RADAR)
Sun 07:02:54 PM -27.2737 153.1134 38° Northeast 330 380 14,400 2,444 Climbing Aus ATC (RADAR)
Sun 07:03:18 PM -27.2436 153.1441 42° Northeast 346 398 15,400 2,542 Climbing Aus ATC (RADAR)
Sun 07:03:53 PM -27.1953 153.1783 32° Northeast 359 413 16,900 2,682 Climbing Aus ATC (RADAR)
Sun 07:04:43 PM -27.1153 153.1953 11° North 350 403 19,200 2,541 Climbing Aus ATC (RADAR)
Sun 07:05:18 PM -27.0585 153.2080 11° North 356 410 20,500 2,222 Climbing Aus ATC (RADAR)
Sun 07:06:04 PM -26.9840 153.2227 10° North 365 420 22,200 2,229 Climbing Aus ATC (RADAR)
Sun 07:06:28 PM -26.9437 153.2127 347° North 355 409 23,100 2,143 Climbing Aus ATC (RADAR)
Sun 07:07:28 PM -26.8585 153.1611 332° Northwest 344 396 25,200 1,976 Climbing Aus ATC (RADAR)
Sun 07:07:53 PM -26.8223 153.1394 332° Northwest 347 399 25,900 1,680 Climbing Aus ATC (RADAR)
Sun 07:08:18 PM -26.7852 153.1175 332° Northwest 353 406 26,600 1,662 Climbing Aus ATC (RADAR)
Sun 07:08:58 PM -26.7252 153.0824 332° Northwest 361 415 27,700 1,694 Climbing Aus ATC (RADAR)
Sun 07:09:43 PM -26.6575 153.0427 332° Northwest 362 417 29,000 1,875 Climbing Aus ATC (RADAR)
Sun 07:10:18 PM -26.6049 153.0118 332° Northwest 361 415 30,200 2,148 Climbing Aus ATC (RADAR)
Sun 07:11:04 PM -26.5395 152.9743 333° Northwest 347 399 31,900 1,760 Climbing Aus ATC (RADAR)
Sun 07:11:33 PM -26.4964 152.9487 332° Northwest 345 397 32,400 270 Climbing Aus ATC (RADAR)
Sun 07:12:33 PM -26.4107 152.8993 333° Northwest 345 397 32,300 -71 Descending Aus ATC (RADAR)
Sun 07:12:58 PM -26.3756 152.8785 332° Northwest 343 395 32,300  Level Aus ATC (RADAR)
Sun 07:13:23 PM -26.3393 152.8575 333° Northwest 348 400 32,300  Level Aus ATC (RADAR)
Sun 07:13:58 PM -26.2869 152.8263 332° Northwest 364 419 32,300  Level Aus ATC (RADAR)
Sun 07:14:48 PM -26.2079 152.7812 333° Northwest 385 443 32,300  Level Aus ATC (RADAR)
Sun 07:15:22 PM -26.1507 152.7477 332° Northwest 395 455 32,300  Level Aus ATC (RADAR)
Sun 07:16:07 PM -26.0757 152.7042 332° Northwest 402 463 32,300  Level Aus ATC (RADAR)
Sun 07:16:32 PM -26.0341 152.6793 332° Northwest 405 466 32,300  Level Aus ATC (RADAR)
Sun 07:17:42 PM -25.9164 152.6118 333° Northwest 405 466 32,300  Level Aus ATC (RADAR)
Sun 07:18:12 PM -25.8658 152.5830 333° Northwest 406 467 32,300  Level Aus ATC (RADAR)
Sun 07:18:37 PM -25.8239 152.5592 333° Northwest 404 465 32,300  Level Aus ATC (RADAR)
Sun 07:19:12 PM -25.7652 152.5253 332° Northwest 406 467 32,300  Level Aus ATC (RADAR)
Sun 07:19:52 PM -25.6979 152.4864 333° Northwest 407 468 32,300  Level Aus ATC (RADAR)
Sun 07:20:27 PM -25.6387 152.4523 333° Northwest 409 471 32,300  Level Aus ATC (RADAR)
Sun 07:21:17 PM -25.5533 152.4048 333° Northwest 410 472 32,300  Level Aus ATC (RADAR)
Sun 07:21:42 PM -25.5107 152.3806 333° Northwest 411 473 32,300  Level Aus ATC (RADAR)
Sun 07:23:12 PM -25.3593 152.2939 333° Northwest 408 470 32,300  Level Aus ATC (RADAR)
Sun 07:23:42 PM -25.3088 152.2650 333° Northwest 407 468 32,300  Level Aus ATC (RADAR)
Sun 07:24:17 PM -25.2496 152.2320 333° Northwest 406 467 32,300  Level Aus ATC (RADAR)
Sun 07:24:52 PM -25.1911 152.1979 332° Northwest 405 466 32,300  Level Aus ATC (RADAR)
Sun 07:25:27 PM -25.1317 152.1651 333° Northwest 407 468 32,300  Level Aus ATC (RADAR)
Sun 07:26:12 PM -25.0561 152.1225 333° Northwest 405 466 32,300  Level Aus ATC (RADAR)
Sun 07:26:37 PM -25.0181 152.0934 325° Northwest 400 460 32,300  Level Aus ATC (RADAR)
Sun 07:27:46 PM -24.9299 151.9910 314° West 390 449 32,300  Level Aus ATC (RADAR)
Sun 07:28:11 PM -24.8986 151.9544 313° West 391 450 32,300 -120 Level Aus ATC (RADAR)
Sun 07:28:36 PM -24.8671 151.9184 314° West 389 448 32,200 -92 Descending Aus ATC (RADAR)
Sun 07:29:16 PM -24.8167 151.8614 314° West 386 444 32,200  Level Aus ATC (RADAR)
Sun 07:29:56 PM -24.7661 151.8044 314° West 387 445 32,200  Level Aus ATC (RADAR)
Sun 07:30:36 PM -24.7159 151.7467 314° West 389 448 32,200  Level Aus ATC (RADAR)
Sun 07:31:26 PM -24.6525 151.6758 315° West 387 445 32,200  Level Aus ATC (RADAR)
Sun 07:31:51 PM -24.6212 151.6395 313° West 390 449 32,200 -55 Level Aus ATC (RADAR)
Sun 07:33:16 PM -24.5143 151.5176 314° West 388 447 32,100 -600 Descending Aus ATC (RADAR)
Sun 07:33:41 PM -24.4829 151.4814 314° West 392 451 31,100 -2,300 Descending Aus ATC (RADAR)
Sun 07:34:16 PM -24.4379 151.4305 314° West 399 459 29,800 -2,148 Descending Aus ATC (RADAR)
Sun 07:35:02 PM -24.3781 151.3637 314° West 411 473 28,200 -2,118 Descending Aus ATC (RADAR)
Sun 07:35:41 PM -24.3261 151.3051 314° West 403 464 26,800 -2,143 Descending Aus ATC (RADAR)
Sun 07:36:26 PM -24.2689 151.2411 314° West 391 450 25,200 -2,057 Descending Aus ATC (RADAR)
Sun 07:36:51 PM -24.2376 151.2064 315° West 385 443 24,400 -2,000 Descending Aus ATC (RADAR)
Sun 07:38:14 PM -24.1384 151.0944 314° West 383 441 21,600 -2,037 Descending Aus ATC (RADAR)
Sun 07:38:40 PM -24.1012 151.0527 314° West 383 441 20,700 -2,066 Descending Aus ATC (RADAR)
Sun 07:39:15 PM -24.0569 151.0051 316° Northwest 384 442 19,500 -2,049 Descending Aus ATC (RADAR)
Sun 07:40:02 PM -23.9934 150.9532 323° Northwest 379 436 17,900 -2,025 Descending Aus ATC (RADAR)
Sun 07:40:35 PM -23.9452 150.9148 324° Northwest 370 426 16,800 -2,000 Descending Aus ATC (RADAR)
Sun 07:41:20 PM -23.8829 150.8651 324° Northwest 372 428 15,300 -2,000 Descending Aus ATC (RADAR)
Sun 07:41:50 PM -23.8421 150.8328 324° Northwest 364 419 14,300 -1,909 Descending Aus ATC (RADAR)
Sun 07:43:10 PM -23.7332 150.7469 324° Northwest 365 420 11,800 -1,886 Descending Aus ATC (RADAR)
Sun 07:43:35 PM -23.6989 150.7198 324° Northwest 368 423 11,000 -1,920 Descending Aus ATC (RADAR)
Sun 07:44:00 PM -23.6646 150.6929 324° Northwest 364 419 10,200 -2,100 Descending Aus ATC (RADAR)
Sun 07:44:35 PM -23.6190 150.6568 324° Northwest 349 402 8,900 -1,680 Descending Aus ATC (RADAR)
Sun 07:45:15 PM -23.5688 150.6172 324° Northwest 330 380 8,100 -1,760 Descending Aus ATC (RADAR)
Sun 07:45:50 PM -23.5272 150.5845 324° Northwest 319 367 6,700 -2,047 Descending Aus ATC (RADAR)
Sun 07:46:40 PM -23.4681 150.5376 324° Northwest 316 364 5,200 -1,184 Descending Aus ATC (RADAR)
Sun 07:47:06 PM -23.4405 150.5163 325° Northwest 296 341 5,200  Level Aus ATC (RADAR)

Login

Don't have an account? Register now (free) for customized features, flight alerts, and more!